sensor_id;sensor_type;location;lat;lon;timestamp;P1;durP1;ratioP1;P2;durP2;ratioP2
76848;SDS011;65814;51.134;16.980;2023-05-18T00:00:48;19.20;;;5.90;;
76848;SDS011;65814;51.134;16.980;2023-05-18T00:03:20;14.70;;;5.10;;
76848;SDS011;65814;51.134;16.980;2023-05-18T00:05:49;14.70;;;5.40;;
76848;SDS011;65814;51.134;16.980;2023-05-18T00:08:17;16.00;;;5.60;;
76848;SDS011;65814;51.134;16.980;2023-05-18T00:10:45;16.90;;;5.30;;
76848;SDS011;65814;51.134;16.980;2023-05-18T00:13:13;12.80;;;5.30;;
76848;SDS011;65814;51.134;16.980;2023-05-18T00:15:41;16.00;;;6.20;;
76848;SDS011;65814;51.134;16.980;2023-05-18T00:18:09;8.30;;;4.80;;
76848;SDS011;65814;51.134;16.980;2023-05-18T00:20:37;13.10;;;5.70;;
76848;SDS011;65814;51.134;16.980;2023-05-18T00:23:05;13.60;;;6.30;;
76848;SDS011;65814;51.134;16.980;2023-05-18T00:25:36;8.70;;;4.70;;
76848;SDS011;65814;51.134;16.980;2023-05-18T00:28:04;12.90;;;4.60;;
76848;SDS011;65814;51.134;16.980;2023-05-18T00:30:32;11.40;;;6.20;;
76848;SDS011;65814;51.134;16.980;2023-05-18T00:33:00;15.30;;;5.00;;
76848;SDS011;65814;51.134;16.980;2023-05-18T00:35:28;17.20;;;5.40;;
76848;SDS011;65814;51.134;16.980;2023-05-18T00:37:57;11.00;;;4.60;;
76848;SDS011;65814;51.134;16.980;2023-05-18T00:40:25;14.30;;;5.60;;
76848;SDS011;65814;51.134;16.980;2023-05-18T00:42:54;14.30;;;5.30;;
76848;SDS011;65814;51.134;16.980;2023-05-18T00:45:22;14.10;;;6.10;;
76848;SDS011;65814;51.134;16.980;2023-05-18T00:47:50;12.20;;;5.60;;
76848;SDS011;65814;51.134;16.980;2023-05-18T00:50:18;13.20;;;5.40;;
76848;SDS011;65814;51.134;16.980;2023-05-18T00:52:46;15.90;;;5.90;;
76848;SDS011;65814;51.134;16.980;2023-05-18T00:55:14;10.90;;;5.60;;
76848;SDS011;65814;51.134;16.980;2023-05-18T00:57:42;11.80;;;5.70;;
76848;SDS011;65814;51.134;16.980;2023-05-18T01:00:11;13.50;;;5.10;;
76848;SDS011;65814;51.134;16.980;2023-05-18T01:02:40;10.70;;;5.10;;
76848;SDS011;65814;51.134;16.980;2023-05-18T01:05:12;11.90;;;6.10;;
76848;SDS011;65814;51.134;16.980;2023-05-18T01:07:40;9.30;;;5.10;;
76848;SDS011;65814;51.134;16.980;2023-05-18T01:10:11;11.50;;;6.50;;
76848;SDS011;65814;51.134;16.980;2023-05-18T01:12:52;12.50;;;5.40;;
76848;SDS011;65814;51.134;16.980;2023-05-18T01:15:25;12.70;;;5.20;;
76848;SDS011;65814;51.134;16.980;2023-05-18T01:18:09;13.20;;;5.30;;
76848;SDS011;65814;51.134;16.980;2023-05-18T01:26:42;10.80;;;4.10;;
76848;SDS011;65814;51.134;16.980;2023-05-18T01:29:11;8.80;;;4.40;;
76848;SDS011;65814;51.134;16.980;2023-05-18T01:31:40;9.70;;;4.20;;
76848;SDS011;65814;51.134;16.980;2023-05-18T01:34:08;12.00;;;5.80;;
76848;SDS011;65814;51.134;16.980;2023-05-18T01:36:36;10.80;;;4.50;;
76848;SDS011;65814;51.134;16.980;2023-05-18T01:39:03;8.40;;;4.60;;
76848;SDS011;65814;51.134;16.980;2023-05-18T01:41:33;9.10;;;5.20;;
76848;SDS011;65814;51.134;16.980;2023-05-18T01:44:18;14.10;;;4.70;;
76848;SDS011;65814;51.134;16.980;2023-05-18T01:49:37;9.90;;;3.80;;
76848;SDS011;65814;51.134;16.980;2023-05-18T01:52:10;7.00;;;4.20;;
76848;SDS011;65814;51.134;16.980;2023-05-18T01:54:51;23.70;;;4.30;;
76848;SDS011;65814;51.134;16.980;2023-05-18T01:57:22;10.30;;;4.50;;
76848;SDS011;65814;51.134;16.980;2023-05-18T01:59:52;7.40;;;4.20;;
76848;SDS011;65814;51.134;16.980;2023-05-18T02:02:21;10.00;;;4.40;;
76848;SDS011;65814;51.134;16.980;2023-05-18T02:04:49;9.10;;;4.20;;
76848;SDS011;65814;51.134;16.980;2023-05-18T02:07:20;13.80;;;4.30;;
76848;SDS011;65814;51.134;16.980;2023-05-18T02:09:48;8.80;;;4.60;;
76848;SDS011;65814;51.134;16.980;2023-05-18T02:12:16;14.00;;;4.90;;
76848;SDS011;65814;51.134;16.980;2023-05-18T02:14:44;9.70;;;4.30;;
76848;SDS011;65814;51.134;16.980;2023-05-18T02:17:12;8.80;;;4.40;;
76848;SDS011;65814;51.134;16.980;2023-05-18T02:19:40;7.80;;;3.90;;
76848;SDS011;65814;51.134;16.980;2023-05-18T02:22:10;11.80;;;4.10;;
76848;SDS011;65814;51.134;16.980;2023-05-18T02:24:38;11.10;;;4.20;;
76848;SDS011;65814;51.134;16.980;2023-05-18T02:27:06;8.50;;;4.10;;
76848;SDS011;65814;51.134;16.980;2023-05-18T02:29:34;10.90;;;4.30;;
76848;SDS011;65814;51.134;16.980;2023-05-18T02:32:02;12.90;;;5.30;;
76848;SDS011;65814;51.134;16.980;2023-05-18T02:34:31;11.70;;;4.70;;
76848;SDS011;65814;51.134;16.980;2023-05-18T02:36:59;15.60;;;4.80;;
76848;SDS011;65814;51.134;16.980;2023-05-18T02:39:30;9.30;;;4.60;;
76848;SDS011;65814;51.134;16.980;2023-05-18T02:42:00;11.30;;;4.20;;
76848;SDS011;65814;51.134;16.980;2023-05-18T02:44:28;11.90;;;4.00;;
76848;SDS011;65814;51.134;16.980;2023-05-18T02:46:56;12.40;;;4.30;;
76848;SDS011;65814;51.134;16.980;2023-05-18T02:49:24;9.50;;;4.20;;
76848;SDS011;65814;51.134;16.980;2023-05-18T02:51:52;11.00;;;3.50;;
76848;SDS011;65814;51.134;16.980;2023-05-18T02:54:19;12.90;;;4.10;;
76848;SDS011;65814;51.134;16.980;2023-05-18T02:56:48;10.50;;;5.00;;
76848;SDS011;65814;51.134;16.980;2023-05-18T02:59:16;7.60;;;4.10;;
76848;SDS011;65814;51.134;16.980;2023-05-18T03:01:44;12.10;;;4.90;;
76848;SDS011;65814;51.134;16.980;2023-05-18T03:04:12;8.00;;;4.80;;
76848;SDS011;65814;51.134;16.980;2023-05-18T03:06:40;8.90;;;3.80;;
76848;SDS011;65814;51.134;16.980;2023-05-18T03:09:08;11.40;;;4.30;;
76848;SDS011;65814;51.134;16.980;2023-05-18T03:11:36;8.30;;;3.90;;
76848;SDS011;65814;51.134;16.980;2023-05-18T03:14:04;7.50;;;4.20;;
76848;SDS011;65814;51.134;16.980;2023-05-18T03:16:32;8.00;;;4.70;;
76848;SDS011;65814;51.134;16.980;2023-05-18T03:19:00;10.50;;;4.80;;
76848;SDS011;65814;51.134;16.980;2023-05-18T03:21:29;9.80;;;4.20;;
76848;SDS011;65814;51.134;16.980;2023-05-18T03:24:03;9.80;;;4.60;;
76848;SDS011;65814;51.134;16.980;2023-05-18T03:26:31;7.90;;;3.80;;
76848;SDS011;65814;51.134;16.980;2023-05-18T03:28:59;8.10;;;3.80;;
76848;SDS011;65814;51.134;16.980;2023-05-18T03:31:28;13.10;;;5.20;;
76848;SDS011;65814;51.134;16.980;2023-05-18T03:33:56;9.60;;;4.10;;
76848;SDS011;65814;51.134;16.980;2023-05-18T03:36:24;14.70;;;4.30;;
76848;SDS011;65814;51.134;16.980;2023-05-18T03:38:54;9.50;;;3.80;;
76848;SDS011;65814;51.134;16.980;2023-05-18T03:41:22;8.80;;;4.00;;
76848;SDS011;65814;51.134;16.980;2023-05-18T03:43:50;10.40;;;3.50;;
76848;SDS011;65814;51.134;16.980;2023-05-18T03:46:18;11.40;;;4.90;;
76848;SDS011;65814;51.134;16.980;2023-05-18T03:48:46;12.10;;;4.10;;
76848;SDS011;65814;51.134;16.980;2023-05-18T03:51:14;16.40;;;4.40;;
76848;SDS011;65814;51.134;16.980;2023-05-18T03:53:41;10.80;;;3.60;;
76848;SDS011;65814;51.134;16.980;2023-05-18T03:56:09;6.80;;;4.00;;
76848;SDS011;65814;51.134;16.980;2023-05-18T03:58:39;11.50;;;3.90;;
76848;SDS011;65814;51.134;16.980;2023-05-18T04:01:08;9.50;;;3.80;;
76848;SDS011;65814;51.134;16.980;2023-05-18T04:03:37;8.80;;;4.30;;
76848;SDS011;65814;51.134;16.980;2023-05-18T04:06:07;12.50;;;4.90;;
76848;SDS011;65814;51.134;16.980;2023-05-18T04:08:36;11.30;;;4.00;;
76848;SDS011;65814;51.134;16.980;2023-05-18T04:11:05;10.80;;;4.30;;
76848;SDS011;65814;51.134;16.980;2023-05-18T04:13:33;12.60;;;4.20;;
76848;SDS011;65814;51.134;16.980;2023-05-18T04:16:04;10.90;;;4.00;;
76848;SDS011;65814;51.134;16.980;2023-05-18T04:18:32;12.50;;;4.00;;
76848;SDS011;65814;51.134;16.980;2023-05-18T04:21:00;7.40;;;4.00;;
76848;SDS011;65814;51.134;16.980;2023-05-18T04:23:29;11.20;;;3.40;;
76848;SDS011;65814;51.134;16.980;2023-05-18T04:26:00;9.50;;;3.40;;
76848;SDS011;65814;51.134;16.980;2023-05-18T04:28:27;11.40;;;3.80;;
76848;SDS011;65814;51.134;16.980;2023-05-18T04:30:55;11.10;;;4.00;;
76848;SDS011;65814;51.134;16.980;2023-05-18T04:33:23;12.10;;;4.40;;
76848;SDS011;65814;51.134;16.980;2023-05-18T04:35:51;11.40;;;4.10;;
76848;SDS011;65814;51.134;16.980;2023-05-18T04:38:21;13.20;;;3.30;;
76848;SDS011;65814;51.134;16.980;2023-05-18T04:40:52;9.20;;;3.80;;
76848;SDS011;65814;51.134;16.980;2023-05-18T04:43:23;10.30;;;3.50;;
76848;SDS011;65814;51.134;16.980;2023-05-18T04:45:52;8.80;;;4.00;;
76848;SDS011;65814;51.134;16.980;2023-05-18T04:48:21;6.80;;;4.20;;
76848;SDS011;65814;51.134;16.980;2023-05-18T04:50:52;7.50;;;3.40;;
76848;SDS011;65814;51.134;16.980;2023-05-18T04:53:23;10.30;;;4.10;;
76848;SDS011;65814;51.134;16.980;2023-05-18T04:55:51;10.50;;;4.30;;
76848;SDS011;65814;51.134;16.980;2023-05-18T04:58:19;11.30;;;4.20;;
76848;SDS011;65814;51.134;16.980;2023-05-18T05:00:47;8.80;;;3.40;;
76848;SDS011;65814;51.134;16.980;2023-05-18T05:03:15;8.80;;;3.60;;
76848;SDS011;65814;51.134;16.980;2023-05-18T05:05:43;10.40;;;4.30;;
76848;SDS011;65814;51.134;16.980;2023-05-18T05:08:11;6.70;;;3.60;;
76848;SDS011;65814;51.134;16.980;2023-05-18T05:10:38;9.30;;;3.30;;
76848;SDS011;65814;51.134;16.980;2023-05-18T05:13:06;10.60;;;3.80;;
76848;SDS011;65814;51.134;16.980;2023-05-18T05:15:36;14.10;;;4.00;;
76848;SDS011;65814;51.134;16.980;2023-05-18T05:18:04;7.70;;;3.20;;
76848;SDS011;65814;51.134;16.980;2023-05-18T05:20:32;8.00;;;3.70;;
76848;SDS011;65814;51.134;16.980;2023-05-18T05:23:00;9.40;;;3.90;;
76848;SDS011;65814;51.134;16.980;2023-05-18T05:25:28;8.50;;;3.40;;
76848;SDS011;65814;51.134;16.980;2023-05-18T05:27:57;9.40;;;3.30;;
76848;SDS011;65814;51.134;16.980;2023-05-18T05:30:24;9.60;;;4.00;;
76848;SDS011;65814;51.134;16.980;2023-05-18T05:32:52;13.50;;;3.60;;
76848;SDS011;65814;51.134;16.980;2023-05-18T05:35:20;10.70;;;3.30;;
76848;SDS011;65814;51.134;16.980;2023-05-18T05:37:49;13.60;;;4.00;;
76848;SDS011;65814;51.134;16.980;2023-05-18T05:40:16;6.10;;;2.90;;
76848;SDS011;65814;51.134;16.980;2023-05-18T05:42:45;10.30;;;3.90;;
76848;SDS011;65814;51.134;16.980;2023-05-18T05:45:13;8.70;;;3.80;;
76848;SDS011;65814;51.134;16.980;2023-05-18T05:47:41;7.50;;;3.40;;
76848;SDS011;65814;51.134;16.980;2023-05-18T05:50:08;10.20;;;3.60;;
76848;SDS011;65814;51.134;16.980;2023-05-18T05:52:39;10.00;;;3.60;;
76848;SDS011;65814;51.134;16.980;2023-05-18T05:55:07;12.20;;;3.80;;
76848;SDS011;65814;51.134;16.980;2023-05-18T05:57:35;9.50;;;4.30;;
76848;SDS011;65814;51.134;16.980;2023-05-18T06:00:03;7.60;;;3.10;;
76848;SDS011;65814;51.134;16.980;2023-05-18T06:02:31;8.60;;;3.10;;
76848;SDS011;65814;51.134;16.980;2023-05-18T06:05:00;9.20;;;3.50;;
76848;SDS011;65814;51.134;16.980;2023-05-18T06:07:28;9.30;;;3.80;;
76848;SDS011;65814;51.134;16.980;2023-05-18T06:09:57;9.60;;;3.90;;
76848;SDS011;65814;51.134;16.980;2023-05-18T06:12:25;6.30;;;2.70;;
76848;SDS011;65814;51.134;16.980;2023-05-18T06:14:53;5.60;;;2.50;;
76848;SDS011;65814;51.134;16.980;2023-05-18T06:17:25;6.00;;;3.10;;
76848;SDS011;65814;51.134;16.980;2023-05-18T06:19:53;10.00;;;3.60;;
76848;SDS011;65814;51.134;16.980;2023-05-18T06:22:22;10.70;;;3.40;;
76848;SDS011;65814;51.134;16.980;2023-05-18T06:24:50;7.90;;;2.40;;
76848;SDS011;65814;51.134;16.980;2023-05-18T06:27:18;5.50;;;2.40;;
76848;SDS011;65814;51.134;16.980;2023-05-18T06:29:46;9.20;;;2.30;;
76848;SDS011;65814;51.134;16.980;2023-05-18T06:32:15;7.60;;;2.80;;
76848;SDS011;65814;51.134;16.980;2023-05-18T06:34:43;5.20;;;2.40;;
76848;SDS011;65814;51.134;16.980;2023-05-18T06:37:12;6.60;;;3.10;;
76848;SDS011;65814;51.134;16.980;2023-05-18T06:39:40;8.00;;;3.00;;
76848;SDS011;65814;51.134;16.980;2023-05-18T06:42:08;6.20;;;2.80;;
76848;SDS011;65814;51.134;16.980;2023-05-18T06:44:36;8.60;;;2.50;;
76848;SDS011;65814;51.134;16.980;2023-05-18T06:47:04;7.80;;;2.30;;
76848;SDS011;65814;51.134;16.980;2023-05-18T06:49:33;5.70;;;2.80;;
76848;SDS011;65814;51.134;16.980;2023-05-18T06:52:01;5.90;;;2.40;;
76848;SDS011;65814;51.134;16.980;2023-05-18T06:54:29;6.60;;;1.80;;
76848;SDS011;65814;51.134;16.980;2023-05-18T06:56:57;7.40;;;2.30;;
76848;SDS011;65814;51.134;16.980;2023-05-18T06:59:25;5.60;;;2.00;;
76848;SDS011;65814;51.134;16.980;2023-05-18T07:01:53;4.10;;;2.00;;
76848;SDS011;65814;51.134;16.980;2023-05-18T07:04:21;6.20;;;2.20;;
76848;SDS011;65814;51.134;16.980;2023-05-18T07:06:49;5.60;;;2.00;;
76848;SDS011;65814;51.134;16.980;2023-05-18T07:09:18;4.20;;;2.30;;
76848;SDS011;65814;51.134;16.980;2023-05-18T07:11:45;8.50;;;2.70;;
76848;SDS011;65814;51.134;16.980;2023-05-18T07:14:13;7.10;;;2.40;;
76848;SDS011;65814;51.134;16.980;2023-05-18T07:16:41;4.50;;;2.10;;
76848;SDS011;65814;51.134;16.980;2023-05-18T07:19:10;6.60;;;2.50;;
76848;SDS011;65814;51.134;16.980;2023-05-18T07:21:38;6.30;;;2.20;;
76848;SDS011;65814;51.134;16.980;2023-05-18T07:24:06;8.40;;;2.00;;
76848;SDS011;65814;51.134;16.980;2023-05-18T07:26:34;4.70;;;2.00;;
76848;SDS011;65814;51.134;16.980;2023-05-18T07:29:02;5.50;;;3.00;;
76848;SDS011;65814;51.134;16.980;2023-05-18T07:31:30;8.80;;;2.50;;
76848;SDS011;65814;51.134;16.980;2023-05-18T07:33:59;6.30;;;2.30;;
76848;SDS011;65814;51.134;16.980;2023-05-18T07:36:27;7.10;;;2.20;;
76848;SDS011;65814;51.134;16.980;2023-05-18T07:38:55;5.00;;;2.60;;
76848;SDS011;65814;51.134;16.980;2023-05-18T07:41:24;4.70;;;1.80;;
76848;SDS011;65814;51.134;16.980;2023-05-18T07:43:52;7.40;;;2.30;;
76848;SDS011;65814;51.134;16.980;2023-05-18T07:46:20;7.20;;;1.60;;
76848;SDS011;65814;51.134;16.980;2023-05-18T07:48:48;5.50;;;2.00;;
76848;SDS011;65814;51.134;16.980;2023-05-18T07:51:16;5.80;;;1.90;;
76848;SDS011;65814;51.134;16.980;2023-05-18T07:53:44;6.60;;;2.50;;
76848;SDS011;65814;51.134;16.980;2023-05-18T07:56:12;4.50;;;2.10;;
76848;SDS011;65814;51.134;16.980;2023-05-18T07:58:40;11.40;;;2.20;;
76848;SDS011;65814;51.134;16.980;2023-05-18T08:01:08;4.10;;;1.90;;
76848;SDS011;65814;51.134;16.980;2023-05-18T08:03:36;5.40;;;2.00;;
76848;SDS011;65814;51.134;16.980;2023-05-18T08:06:04;4.90;;;1.60;;
76848;SDS011;65814;51.134;16.980;2023-05-18T08:08:32;3.70;;;1.80;;
76848;SDS011;65814;51.134;16.980;2023-05-18T08:11:04;7.60;;;2.10;;
76848;SDS011;65814;51.134;16.980;2023-05-18T08:13:32;5.10;;;1.80;;
76848;SDS011;65814;51.134;16.980;2023-05-18T08:16:00;7.20;;;1.80;;
76848;SDS011;65814;51.134;16.980;2023-05-18T08:18:38;5.20;;;1.70;;
76848;SDS011;65814;51.134;16.980;2023-05-18T08:21:07;4.40;;;1.50;;
76848;SDS011;65814;51.134;16.980;2023-05-18T08:23:37;6.00;;;2.00;;
76848;SDS011;65814;51.134;16.980;2023-05-18T08:26:05;4.00;;;2.00;;
76848;SDS011;65814;51.134;16.980;2023-05-18T08:28:37;7.10;;;1.70;;
76848;SDS011;65814;51.134;16.980;2023-05-18T08:31:05;10.40;;;2.10;;
76848;SDS011;65814;51.134;16.980;2023-05-18T08:33:33;6.00;;;2.00;;
76848;SDS011;65814;51.134;16.980;2023-05-18T08:36:01;6.60;;;2.30;;
76848;SDS011;65814;51.134;16.980;2023-05-18T08:38:30;6.20;;;1.90;;
76848;SDS011;65814;51.134;16.980;2023-05-18T08:41:07;5.30;;;2.00;;
76848;SDS011;65814;51.134;16.980;2023-05-18T08:43:41;4.50;;;1.80;;
76848;SDS011;65814;51.134;16.980;2023-05-18T08:46:20;5.40;;;1.90;;
76848;SDS011;65814;51.134;16.980;2023-05-18T08:48:49;2.90;;;2.00;;
76848;SDS011;65814;51.134;16.980;2023-05-18T08:51:19;8.40;;;1.90;;
76848;SDS011;65814;51.134;16.980;2023-05-18T08:53:50;5.00;;;1.60;;
76848;SDS011;65814;51.134;16.980;2023-05-18T08:56:21;6.20;;;2.00;;
76848;SDS011;65814;51.134;16.980;2023-05-18T08:58:52;6.40;;;2.10;;
76848;SDS011;65814;51.134;16.980;2023-05-18T09:01:25;4.50;;;1.90;;
76848;SDS011;65814;51.134;16.980;2023-05-18T09:03:57;3.90;;;1.70;;
76848;SDS011;65814;51.134;16.980;2023-05-18T09:06:27;5.60;;;2.80;;
76848;SDS011;65814;51.134;16.980;2023-05-18T09:08:55;4.10;;;2.00;;
76848;SDS011;65814;51.134;16.980;2023-05-18T09:11:26;5.40;;;1.90;;
76848;SDS011;65814;51.134;16.980;2023-05-18T09:13:54;3.40;;;2.10;;
76848;SDS011;65814;51.134;16.980;2023-05-18T09:16:22;6.20;;;2.70;;
76848;SDS011;65814;51.134;16.980;2023-05-18T09:18:51;7.80;;;2.40;;
76848;SDS011;65814;51.134;16.980;2023-05-18T09:21:20;3.80;;;1.80;;
76848;SDS011;65814;51.134;16.980;2023-05-18T09:23:48;7.10;;;2.20;;
76848;SDS011;65814;51.134;16.980;2023-05-18T09:26:18;4.70;;;2.10;;
76848;SDS011;65814;51.134;16.980;2023-05-18T09:28:49;8.70;;;2.20;;
76848;SDS011;65814;51.134;16.980;2023-05-18T09:31:20;6.90;;;2.00;;
76848;SDS011;65814;51.134;16.980;2023-05-18T09:33:51;6.20;;;1.80;;
76848;SDS011;65814;51.134;16.980;2023-05-18T09:36:23;5.50;;;2.30;;
76848;SDS011;65814;51.134;16.980;2023-05-18T09:38:52;3.90;;;2.10;;
76848;SDS011;65814;51.134;16.980;2023-05-18T09:41:20;3.60;;;1.60;;
76848;SDS011;65814;51.134;16.980;2023-05-18T09:43:53;5.00;;;2.10;;
76848;SDS011;65814;51.134;16.980;2023-05-18T09:46:21;4.90;;;2.00;;
76848;SDS011;65814;51.134;16.980;2023-05-18T09:48:49;4.90;;;2.00;;
76848;SDS011;65814;51.134;16.980;2023-05-18T09:51:20;5.10;;;2.30;;
76848;SDS011;65814;51.134;16.980;2023-05-18T09:53:53;6.60;;;2.00;;
76848;SDS011;65814;51.134;16.980;2023-05-18T09:56:23;4.20;;;2.00;;
76848;SDS011;65814;51.134;16.980;2023-05-18T09:58:53;6.90;;;2.10;;
76848;SDS011;65814;51.134;16.980;2023-05-18T10:01:21;5.30;;;3.20;;
76848;SDS011;65814;51.134;16.980;2023-05-18T10:03:50;5.30;;;2.10;;
76848;SDS011;65814;51.134;16.980;2023-05-18T10:06:20;5.70;;;2.20;;
76848;SDS011;65814;51.134;16.980;2023-05-18T10:08:55;4.40;;;1.90;;
76848;SDS011;65814;51.134;16.980;2023-05-18T10:11:23;3.90;;;1.80;;
76848;SDS011;65814;51.134;16.980;2023-05-18T10:13:54;6.20;;;2.20;;
76848;SDS011;65814;51.134;16.980;2023-05-18T10:16:24;5.80;;;2.00;;
76848;SDS011;65814;51.134;16.980;2023-05-18T10:18:53;4.60;;;2.00;;
76848;SDS011;65814;51.134;16.980;2023-05-18T10:21:21;3.10;;;1.80;;
76848;SDS011;65814;51.134;16.980;2023-05-18T10:23:51;6.70;;;1.80;;
76848;SDS011;65814;51.134;16.980;2023-05-18T10:26:19;3.80;;;2.00;;
76848;SDS011;65814;51.134;16.980;2023-05-18T10:28:49;4.40;;;1.60;;
76848;SDS011;65814;51.134;16.980;2023-05-18T10:31:19;5.20;;;1.70;;
76848;SDS011;65814;51.134;16.980;2023-05-18T10:33:48;2.60;;;1.40;;
76848;SDS011;65814;51.134;16.980;2023-05-18T10:36:17;4.60;;;1.70;;
76848;SDS011;65814;51.134;16.980;2023-05-18T10:38:45;3.50;;;1.60;;
76848;SDS011;65814;51.134;16.980;2023-05-18T10:41:13;3.30;;;1.20;;
76848;SDS011;65814;51.134;16.980;2023-05-18T10:43:42;3.10;;;1.40;;
76848;SDS011;65814;51.134;16.980;2023-05-18T10:46:11;7.40;;;1.70;;
76848;SDS011;65814;51.134;16.980;2023-05-18T10:48:40;3.40;;;1.90;;
76848;SDS011;65814;51.134;16.980;2023-05-18T10:51:09;5.40;;;1.20;;
76848;SDS011;65814;51.134;16.980;2023-05-18T10:53:37;3.00;;;1.70;;
76848;SDS011;65814;51.134;16.980;2023-05-18T10:56:10;3.90;;;1.50;;
76848;SDS011;65814;51.134;16.980;2023-05-18T10:58:38;3.70;;;1.80;;
76848;SDS011;65814;51.134;16.980;2023-05-18T11:01:08;4.20;;;1.60;;
76848;SDS011;65814;51.134;16.980;2023-05-18T11:03:37;3.90;;;1.30;;
76848;SDS011;65814;51.134;16.980;2023-05-18T11:06:06;4.70;;;1.80;;
76848;SDS011;65814;51.134;16.980;2023-05-18T11:08:45;5.40;;;1.70;;
76848;SDS011;65814;51.134;16.980;2023-05-18T11:11:16;3.80;;;1.30;;
76848;SDS011;65814;51.134;16.980;2023-05-18T11:13:51;4.30;;;1.30;;
76848;SDS011;65814;51.134;16.980;2023-05-18T11:16:22;2.70;;;2.30;;
76848;SDS011;65814;51.134;16.980;2023-05-18T11:19:07;3.90;;;1.60;;
76848;SDS011;65814;51.134;16.980;2023-05-18T11:26:55;3.30;;;2.30;;
76848;SDS011;65814;51.134;16.980;2023-05-18T11:31:59;2.90;;;1.30;;
76848;SDS011;65814;51.134;16.980;2023-05-18T11:39:41;3.30;;;1.40;;
76848;SDS011;65814;51.134;16.980;2023-05-18T11:42:31;2.60;;;1.40;;
76848;SDS011;65814;51.134;16.980;2023-05-18T11:45:05;4.50;;;2.00;;
76848;SDS011;65814;51.134;16.980;2023-05-18T11:47:34;3.20;;;1.70;;
76848;SDS011;65814;51.134;16.980;2023-05-18T11:50:08;3.00;;;1.60;;
76848;SDS011;65814;51.134;16.980;2023-05-18T11:52:44;2.90;;;1.60;;
76848;SDS011;65814;51.134;16.980;2023-05-18T11:55:14;1.90;;;1.00;;
76848;SDS011;65814;51.134;16.980;2023-05-18T11:57:43;3.60;;;1.40;;
76848;SDS011;65814;51.134;16.980;2023-05-18T12:00:12;2.70;;;1.10;;
76848;SDS011;65814;51.134;16.980;2023-05-18T12:02:42;3.50;;;1.50;;
76848;SDS011;65814;51.134;16.980;2023-05-18T12:05:12;6.20;;;1.80;;
76848;SDS011;65814;51.134;16.980;2023-05-18T12:07:40;6.10;;;1.90;;
76848;SDS011;65814;51.134;16.980;2023-05-18T12:10:09;1.60;;;1.10;;
76848;SDS011;65814;51.134;16.980;2023-05-18T12:12:39;3.80;;;1.80;;
76848;SDS011;65814;51.134;16.980;2023-05-18T12:15:08;2.80;;;1.60;;
76848;SDS011;65814;51.134;16.980;2023-05-18T12:17:42;2.90;;;1.30;;
76848;SDS011;65814;51.134;16.980;2023-05-18T12:20:12;2.60;;;1.30;;
76848;SDS011;65814;51.134;16.980;2023-05-18T12:22:42;5.20;;;2.40;;
76848;SDS011;65814;51.134;16.980;2023-05-18T12:25:11;2.40;;;1.40;;
76848;SDS011;65814;51.134;16.980;2023-05-18T12:27:40;2.50;;;1.40;;
76848;SDS011;65814;51.134;16.980;2023-05-18T12:32:42;2.10;;;1.00;;
76848;SDS011;65814;51.134;16.980;2023-05-18T12:37:44;2.80;;;1.50;;
76848;SDS011;65814;51.134;16.980;2023-05-18T12:40:14;1.70;;;1.10;;
76848;SDS011;65814;51.134;16.980;2023-05-18T12:42:50;2.60;;;1.00;;
76848;SDS011;65814;51.134;16.980;2023-05-18T12:45:24;2.50;;;1.10;;
76848;SDS011;65814;51.134;16.980;2023-05-18T12:47:53;3.90;;;1.50;;
76848;SDS011;65814;51.134;16.980;2023-05-18T12:50:23;4.90;;;1.60;;
76848;SDS011;65814;51.134;16.980;2023-05-18T12:52:54;2.10;;;1.30;;
76848;SDS011;65814;51.134;16.980;2023-05-18T12:55:25;3.70;;;1.50;;
76848;SDS011;65814;51.134;16.980;2023-05-18T12:58:01;2.50;;;1.10;;
76848;SDS011;65814;51.134;16.980;2023-05-18T13:00:31;1.70;;;0.90;;
76848;SDS011;65814;51.134;16.980;2023-05-18T13:03:18;2.60;;;1.40;;
76848;SDS011;65814;51.134;16.980;2023-05-18T13:06:02;2.40;;;1.40;;
76848;SDS011;65814;51.134;16.980;2023-05-18T13:08:31;2.20;;;1.50;;
76848;SDS011;65814;51.134;16.980;2023-05-18T13:11:03;1.80;;;1.10;;
76848;SDS011;65814;51.134;16.980;2023-05-18T13:14:03;5.10;;;2.00;;
76848;SDS011;65814;51.134;16.980;2023-05-18T13:16:32;2.50;;;1.20;;
76848;SDS011;65814;51.134;16.980;2023-05-18T13:19:02;3.20;;;1.70;;
76848;SDS011;65814;51.134;16.980;2023-05-18T13:21:36;2.30;;;1.30;;
76848;SDS011;65814;51.134;16.980;2023-05-18T13:24:04;4.10;;;1.30;;
76848;SDS011;65814;51.134;16.980;2023-05-18T13:26:32;1.60;;;1.20;;
76848;SDS011;65814;51.134;16.980;2023-05-18T13:29:00;2.10;;;1.20;;
76848;SDS011;65814;51.134;16.980;2023-05-18T13:31:28;3.30;;;1.60;;
76848;SDS011;65814;51.134;16.980;2023-05-18T13:33:56;1.80;;;1.10;;
76848;SDS011;65814;51.134;16.980;2023-05-18T13:36:24;4.20;;;1.50;;
76848;SDS011;65814;51.134;16.980;2023-05-18T13:38:52;2.20;;;1.30;;
76848;SDS011;65814;51.134;16.980;2023-05-18T13:41:20;3.40;;;1.20;;
76848;SDS011;65814;51.134;16.980;2023-05-18T13:43:48;4.10;;;2.60;;
76848;SDS011;65814;51.134;16.980;2023-05-18T13:46:16;2.60;;;1.20;;
76848;SDS011;65814;51.134;16.980;2023-05-18T13:48:46;3.50;;;1.50;;
76848;SDS011;65814;51.134;16.980;2023-05-18T13:51:14;5.10;;;1.60;;
76848;SDS011;65814;51.134;16.980;2023-05-18T13:53:42;3.90;;;1.60;;
76848;SDS011;65814;51.134;16.980;2023-05-18T13:56:10;2.20;;;1.40;;
76848;SDS011;65814;51.134;16.980;2023-05-18T13:58:38;2.70;;;1.90;;
76848;SDS011;65814;51.134;16.980;2023-05-18T14:01:06;2.40;;;1.40;;
76848;SDS011;65814;51.134;16.980;2023-05-18T14:03:39;3.20;;;1.70;;
76848;SDS011;65814;51.134;16.980;2023-05-18T14:06:07;3.50;;;1.50;;
76848;SDS011;65814;51.134;16.980;2023-05-18T14:08:35;2.00;;;1.40;;
76848;SDS011;65814;51.134;16.980;2023-05-18T14:11:03;3.80;;;1.60;;
76848;SDS011;65814;51.134;16.980;2023-05-18T14:13:31;2.70;;;1.90;;
76848;SDS011;65814;51.134;16.980;2023-05-18T14:15:59;2.80;;;1.50;;
76848;SDS011;65814;51.134;16.980;2023-05-18T14:18:27;3.00;;;1.40;;
76848;SDS011;65814;51.134;16.980;2023-05-18T14:20:55;3.60;;;1.50;;
76848;SDS011;65814;51.134;16.980;2023-05-18T14:23:27;3.00;;;1.70;;
76848;SDS011;65814;51.134;16.980;2023-05-18T14:25:55;1.00;;;0.90;;
76848;SDS011;65814;51.134;16.980;2023-05-18T14:28:23;2.00;;;1.20;;
76848;SDS011;65814;51.134;16.980;2023-05-18T14:30:51;1.80;;;1.30;;
76848;SDS011;65814;51.134;16.980;2023-05-18T14:33:19;3.20;;;1.50;;
76848;SDS011;65814;51.134;16.980;2023-05-18T14:35:46;5.80;;;1.60;;
76848;SDS011;65814;51.134;16.980;2023-05-18T14:38:14;4.40;;;1.90;;
76848;SDS011;65814;51.134;16.980;2023-05-18T14:40:43;4.40;;;1.30;;
76848;SDS011;65814;51.134;16.980;2023-05-18T14:43:11;4.20;;;2.00;;
76848;SDS011;65814;51.134;16.980;2023-05-18T14:45:39;2.90;;;1.40;;
76848;SDS011;65814;51.134;16.980;2023-05-18T14:48:06;2.40;;;1.50;;
76848;SDS011;65814;51.134;16.980;2023-05-18T14:50:36;3.20;;;1.70;;
76848;SDS011;65814;51.134;16.980;2023-05-18T14:53:05;2.60;;;1.60;;
76848;SDS011;65814;51.134;16.980;2023-05-18T14:55:33;4.90;;;1.80;;
76848;SDS011;65814;51.134;16.980;2023-05-18T14:58:01;3.60;;;1.40;;
76848;SDS011;65814;51.134;16.980;2023-05-18T15:00:31;4.40;;;1.70;;
76848;SDS011;65814;51.134;16.980;2023-05-18T15:03:00;4.80;;;2.00;;
76848;SDS011;65814;51.134;16.980;2023-05-18T15:05:28;3.80;;;1.30;;
76848;SDS011;65814;51.134;16.980;2023-05-18T15:07:56;2.70;;;1.50;;
76848;SDS011;65814;51.134;16.980;2023-05-18T15:10:24;3.00;;;1.50;;